sensor_id;sensor_type;location;lat;lon;timestamp;pressure;altitude;pressure_sealevel;temperature;humidity
10510;BME280;5303;53.266;10.410;2023-02-02T00:01:58;100803.16;;;7.43;100.00
10510;BME280;5303;53.266;10.410;2023-02-02T00:04:30;100809.44;;;7.26;100.00
10510;BME280;5303;53.266;10.410;2023-02-02T00:06:56;100809.97;;;7.30;100.00
10510;BME280;5303;53.266;10.410;2023-02-02T00:09:22;100808.66;;;7.34;100.00
10510;BME280;5303;53.266;10.410;2023-02-02T00:11:48;100798.16;;;7.49;100.00
10510;BME280;5303;53.266;10.410;2023-02-02T00:14:15;100810.75;;;7.40;100.00
10510;BME280;5303;53.266;10.410;2023-02-02T00:19:14;100819.53;;;7.24;100.00
10510;BME280;5303;53.266;10.410;2023-02-02T00:21:40;100828.19;;;7.10;100.00
10510;BME280;5303;53.266;10.410;2023-02-02T00:24:07;100818.94;;;7.30;100.00
10510;BME280;5303;53.266;10.410;2023-02-02T00:26:33;100818.78;;;7.32;100.00
10510;BME280;5303;53.266;10.410;2023-02-02T00:28:59;100812.75;;;7.38;100.00
10510;BME280;5303;53.266;10.410;2023-02-02T00:31:24;100822.25;;;7.24;100.00
10510;BME280;5303;53.266;10.410;2023-02-02T00:33:50;100820.34;;;7.34;100.00
10510;BME280;5303;53.266;10.410;2023-02-02T00:36:16;100824.91;;;7.34;100.00
10510;BME280;5303;53.266;10.410;2023-02-02T00:38:42;100825.16;;;7.40;100.00
10510;BME280;5303;53.266;10.410;2023-02-02T00:41:07;100832.91;;;7.35;100.00
10510;BME280;5303;53.266;10.410;2023-02-02T00:43:33;100834.38;;;7.47;100.00
10510;BME280;5303;53.266;10.410;2023-02-02T00:45:58;100844.03;;;7.32;100.00
10510;BME280;5303;53.266;10.410;2023-02-02T00:48:23;100845.50;;;7.44;100.00
10510;BME280;5303;53.266;10.410;2023-02-02T00:50:50;100845.72;;;7.33;100.00
10510;BME280;5303;53.266;10.410;2023-02-02T00:53:15;100859.22;;;7.15;100.00
10510;BME280;5303;53.266;10.410;2023-02-02T00:55:40;100875.13;;;7.28;100.00
10510;BME280;5303;53.266;10.410;2023-02-02T00:58:06;100872.84;;;7.33;100.00
10510;BME280;5303;53.266;10.410;2023-02-02T01:00:31;100869.72;;;7.28;100.00
10510;BME280;5303;53.266;10.410;2023-02-02T01:02:56;100862.34;;;7.48;100.00
10510;BME280;5303;53.266;10.410;2023-02-02T01:05:28;100876.25;;;7.35;100.00
10510;BME280;5303;53.266;10.410;2023-02-02T01:07:53;100890.09;;;7.32;100.00
10510;BME280;5303;53.266;10.410;2023-02-02T01:10:18;100883.72;;;7.23;100.00
10510;BME280;5303;53.266;10.410;2023-02-02T01:12:44;100879.63;;;7.19;100.00
10510;BME280;5303;53.266;10.410;2023-02-02T01:15:11;100880.63;;;7.09;100.00
10510;BME280;5303;53.266;10.410;2023-02-02T01:17:36;100892.31;;;7.09;100.00
10510;BME280;5303;53.266;10.410;2023-02-02T01:20:03;100901.34;;;7.10;100.00
10510;BME280;5303;53.266;10.410;2023-02-02T01:22:29;100898.03;;;7.16;100.00
10510;BME280;5303;53.266;10.410;2023-02-02T01:24:54;100894.00;;;7.20;100.00
10510;BME280;5303;53.266;10.410;2023-02-02T01:27:19;100903.28;;;7.17;100.00
10510;BME280;5303;53.266;10.410;2023-02-02T01:29:45;100905.06;;;6.99;100.00
10510;BME280;5303;53.266;10.410;2023-02-02T01:32:10;100902.44;;;7.17;100.00
10510;BME280;5303;53.266;10.410;2023-02-02T01:34:35;100904.72;;;7.12;100.00
10510;BME280;5303;53.266;10.410;2023-02-02T01:37:06;100916.31;;;7.04;100.00
10510;BME280;5303;53.266;10.410;2023-02-02T01:39:31;100907.16;;;7.05;100.00
10510;BME280;5303;53.266;10.410;2023-02-02T01:41:57;100909.81;;;6.87;100.00
10510;BME280;5303;53.266;10.410;2023-02-02T01:47:29;100927.44;;;7.01;100.00
10510;BME280;5303;53.266;10.410;2023-02-02T01:49:56;100920.88;;;7.04;100.00
10510;BME280;5303;53.266;10.410;2023-02-02T01:52:23;100917.78;;;7.26;100.00
10510;BME280;5303;53.266;10.410;2023-02-02T01:54:52;100923.56;;;7.13;100.00
10510;BME280;5303;53.266;10.410;2023-02-02T01:57:29;100934.78;;;7.18;100.00
10510;BME280;5303;53.266;10.410;2023-02-02T01:59:59;100950.34;;;7.16;100.00
10510;BME280;5303;53.266;10.410;2023-02-02T02:02:28;100935.75;;;7.27;100.00
10510;BME280;5303;53.266;10.410;2023-02-02T02:04:54;100945.63;;;7.18;100.00
10510;BME280;5303;53.266;10.410;2023-02-02T02:07:20;100948.88;;;7.22;100.00
10510;BME280;5303;53.266;10.410;2023-02-02T02:09:45;100947.41;;;7.37;100.00
10510;BME280;5303;53.266;10.410;2023-02-02T02:12:12;100937.91;;;7.23;100.00
10510;BME280;5303;53.266;10.410;2023-02-02T02:14:40;100938.13;;;7.40;100.00
10510;BME280;5303;53.266;10.410;2023-02-02T02:20:34;100950.72;;;7.59;100.00
10510;BME280;5303;53.266;10.410;2023-02-02T02:26:50;100965.28;;;7.58;100.00
10510;BME280;5303;53.266;10.410;2023-02-02T02:35:19;100986.56;;;7.53;100.00
10510;BME280;5303;53.266;10.410;2023-02-02T02:37:53;100990.38;;;7.60;100.00
10510;BME280;5303;53.266;10.410;2023-02-02T02:43:15;101001.13;;;7.52;100.00
10510;BME280;5303;53.266;10.410;2023-02-02T02:45:44;101011.53;;;7.46;100.00
10510;BME280;5303;53.266;10.410;2023-02-02T02:48:10;101013.69;;;7.43;100.00
10510;BME280;5303;53.266;10.410;2023-02-02T02:50:36;101013.97;;;7.50;100.00
10510;BME280;5303;53.266;10.410;2023-02-02T02:53:05;101009.25;;;7.52;100.00
10510;BME280;5303;53.266;10.410;2023-02-02T02:55:45;101002.31;;;7.67;100.00
10510;BME280;5303;53.266;10.410;2023-02-02T02:58:17;101012.59;;;7.63;100.00
10510;BME280;5303;53.266;10.410;2023-02-02T03:00:54;101012.78;;;7.62;100.00
10510;BME280;5303;53.266;10.410;2023-02-02T03:03:43;101021.84;;;7.43;100.00
10510;BME280;5303;53.266;10.410;2023-02-02T03:08:52;101021.53;;;7.46;100.00
10510;BME280;5303;53.266;10.410;2023-02-02T03:11:19;101018.41;;;7.41;100.00
10510;BME280;5303;53.266;10.410;2023-02-02T03:13:45;101025.19;;;7.64;100.00
10510;BME280;5303;53.266;10.410;2023-02-02T03:16:10;101020.31;;;7.68;100.00
10510;BME280;5303;53.266;10.410;2023-02-02T03:18:36;101024.53;;;7.43;100.00
10510;BME280;5303;53.266;10.410;2023-02-02T03:21:02;101042.25;;;7.37;100.00
10510;BME280;5303;53.266;10.410;2023-02-02T03:23:27;101038.63;;;7.56;100.00
10510;BME280;5303;53.266;10.410;2023-02-02T03:25:53;101033.13;;;7.38;100.00
10510;BME280;5303;53.266;10.410;2023-02-02T03:28:20;101042.13;;;7.29;100.00
10510;BME280;5303;53.266;10.410;2023-02-02T03:30:47;101044.47;;;7.61;100.00
10510;BME280;5303;53.266;10.410;2023-02-02T03:33:14;101046.31;;;7.51;100.00
10510;BME280;5303;53.266;10.410;2023-02-02T03:35:40;101052.72;;;7.60;100.00
10510;BME280;5303;53.266;10.410;2023-02-02T03:38:06;101057.31;;;7.50;100.00
10510;BME280;5303;53.266;10.410;2023-02-02T03:40:31;101056.16;;;7.62;100.00
10510;BME280;5303;53.266;10.410;2023-02-02T03:42:56;101073.63;;;7.40;100.00
10510;BME280;5303;53.266;10.410;2023-02-02T03:45:22;101060.34;;;7.46;100.00
10510;BME280;5303;53.266;10.410;2023-02-02T03:47:50;101077.78;;;7.24;100.00
10510;BME280;5303;53.266;10.410;2023-02-02T03:50:16;101082.19;;;7.35;100.00
10510;BME280;5303;53.266;10.410;2023-02-02T03:52:41;101072.41;;;7.62;100.00
10510;BME280;5303;53.266;10.410;2023-02-02T03:55:06;101080.47;;;7.34;100.00
10510;BME280;5303;53.266;10.410;2023-02-02T03:57:32;101091.56;;;7.41;100.00
10510;BME280;5303;53.266;10.410;2023-02-02T03:59:57;101087.31;;;7.48;100.00
10510;BME280;5303;53.266;10.410;2023-02-02T04:02:22;101096.19;;;7.11;100.00
10510;BME280;5303;53.266;10.410;2023-02-02T04:04:48;101092.88;;;7.37;100.00
10510;BME280;5303;53.266;10.410;2023-02-02T04:07:14;101097.44;;;7.36;100.00
10510;BME280;5303;53.266;10.410;2023-02-02T04:09:39;101094.00;;;7.34;100.00
10510;BME280;5303;53.266;10.410;2023-02-02T04:12:05;101104.59;;;7.28;100.00
10510;BME280;5303;53.266;10.410;2023-02-02T04:14:30;101111.09;;;7.44;100.00
10510;BME280;5303;53.266;10.410;2023-02-02T04:16:55;101114.44;;;7.38;100.00
10510;BME280;5303;53.266;10.410;2023-02-02T04:19:21;101113.44;;;7.20;100.00
10510;BME280;5303;53.266;10.410;2023-02-02T04:21:46;101124.13;;;7.12;100.00
10510;BME280;5303;53.266;10.410;2023-02-02T04:24:12;101129.28;;;7.05;100.00
10510;BME280;5303;53.266;10.410;2023-02-02T04:26:38;101127.41;;;7.15;100.00
10510;BME280;5303;53.266;10.410;2023-02-02T04:29:03;101128.41;;;7.14;100.00
10510;BME280;5303;53.266;10.410;2023-02-02T04:31:29;101134.69;;;7.05;100.00
10510;BME280;5303;53.266;10.410;2023-02-02T04:33:55;101135.13;;;7.10;100.00
10510;BME280;5303;53.266;10.410;2023-02-02T04:36:21;101134.28;;;7.10;100.00
10510;BME280;5303;53.266;10.410;2023-02-02T04:38:53;101138.53;;;7.12;100.00
10510;BME280;5303;53.266;10.410;2023-02-02T04:41:20;101142.22;;;7.31;100.00
10510;BME280;5303;53.266;10.410;2023-02-02T04:43:45;101149.34;;;7.32;100.00
10510;BME280;5303;53.266;10.410;2023-02-02T04:46:11;101142.81;;;7.24;100.00
10510;BME280;5303;53.266;10.410;2023-02-02T04:48:37;101142.41;;;7.10;100.00
10510;BME280;5303;53.266;10.410;2023-02-02T04:51:08;101149.34;;;7.32;100.00
10510;BME280;5303;53.266;10.410;2023-02-02T04:53:34;101146.06;;;7.28;100.00
10510;BME280;5303;53.266;10.410;2023-02-02T04:56:07;101153.63;;;7.34;100.00
10510;BME280;5303;53.266;10.410;2023-02-02T04:58:33;101154.38;;;7.27;100.00
10510;BME280;5303;53.266;10.410;2023-02-02T05:00:59;101164.75;;;7.31;100.00
10510;BME280;5303;53.266;10.410;2023-02-02T05:03:24;101156.06;;;7.18;100.00
10510;BME280;5303;53.266;10.410;2023-02-02T05:05:49;101159.78;;;7.27;100.00
10510;BME280;5303;53.266;10.410;2023-02-02T05:08:15;101159.91;;;7.35;100.00
10510;BME280;5303;53.266;10.410;2023-02-02T05:10:40;101159.63;;;7.18;100.00
10510;BME280;5303;53.266;10.410;2023-02-02T05:13:06;101172.31;;;7.37;100.00
10510;BME280;5303;53.266;10.410;2023-02-02T05:15:31;101165.59;;;7.32;100.00
10510;BME280;5303;53.266;10.410;2023-02-02T05:17:56;101174.75;;;7.31;100.00
10510;BME280;5303;53.266;10.410;2023-02-02T05:20:23;101178.03;;;7.34;100.00
10510;BME280;5303;53.266;10.410;2023-02-02T05:22:49;101173.63;;;7.33;100.00
10510;BME280;5303;53.266;10.410;2023-02-02T05:25:15;101179.59;;;7.46;100.00
10510;BME280;5303;53.266;10.410;2023-02-02T05:27:44;101181.44;;;7.56;100.00
10510;BME280;5303;53.266;10.410;2023-02-02T05:30:11;101182.31;;;7.46;100.00
10510;BME280;5303;53.266;10.410;2023-02-02T05:32:36;101185.72;;;7.58;100.00
10510;BME280;5303;53.266;10.410;2023-02-02T05:35:01;101176.31;;;7.53;100.00
10510;BME280;5303;53.266;10.410;2023-02-02T05:37:27;101179.59;;;7.46;100.00
10510;BME280;5303;53.266;10.410;2023-02-02T05:39:52;101181.16;;;7.59;100.00
10510;BME280;5303;53.266;10.410;2023-02-02T05:42:17;101182.00;;;7.50;100.00
10510;BME280;5303;53.266;10.410;2023-02-02T05:44:43;101191.00;;;7.50;100.00
10510;BME280;5303;53.266;10.410;2023-02-02T05:47:08;101204.72;;;7.29;100.00
10510;BME280;5303;53.266;10.410;2023-02-02T05:49:33;101209.84;;;7.52;100.00
10510;BME280;5303;53.266;10.410;2023-02-02T05:51:59;101218.09;;;7.40;100.00
10510;BME280;5303;53.266;10.410;2023-02-02T05:54:24;101220.81;;;7.31;100.00
10510;BME280;5303;53.266;10.410;2023-02-02T05:56:51;101231.66;;;7.31;100.00
10510;BME280;5303;53.266;10.410;2023-02-02T05:59:17;101214.09;;;7.44;100.00
10510;BME280;5303;53.266;10.410;2023-02-02T06:01:46;101220.53;;;7.34;100.00
10510;BME280;5303;53.266;10.410;2023-02-02T06:04:12;101220.25;;;7.27;100.00
10510;BME280;5303;53.266;10.410;2023-02-02T06:06:37;101219.09;;;7.30;100.00
10510;BME280;5303;53.266;10.410;2023-02-02T06:09:05;101223.50;;;7.21;100.00
10510;BME280;5303;53.266;10.410;2023-02-02T06:11:31;101230.22;;;7.27;100.00
10510;BME280;5303;53.266;10.410;2023-02-02T06:13:56;101230.81;;;7.40;100.00
10510;BME280;5303;53.266;10.410;2023-02-02T06:16:22;101230.34;;;7.44;100.00
10510;BME280;5303;53.266;10.410;2023-02-02T06:18:48;101236.66;;;7.26;100.00
10510;BME280;5303;53.266;10.410;2023-02-02T06:21:13;101233.94;;;7.16;100.00
10510;BME280;5303;53.266;10.410;2023-02-02T06:23:39;101236.50;;;7.27;100.00
10510;BME280;5303;53.266;10.410;2023-02-02T06:26:11;101245.47;;;7.08;100.00
10510;BME280;5303;53.266;10.410;2023-02-02T06:28:36;101256.84;;;7.02;100.00
10510;BME280;5303;53.266;10.410;2023-02-02T06:31:03;101272.25;;;7.02;100.00
10510;BME280;5303;53.266;10.410;2023-02-02T06:33:29;101266.09;;;6.90;100.00
10510;BME280;5303;53.266;10.410;2023-02-02T06:35:58;101267.59;;;7.23;100.00
10510;BME280;5303;53.266;10.410;2023-02-02T06:38:24;101269.16;;;7.16;100.00
10510;BME280;5303;53.266;10.410;2023-02-02T06:40:49;101271.44;;;7.20;100.00
10510;BME280;5303;53.266;10.410;2023-02-02T06:43:14;101276.00;;;7.20;100.00
10510;BME280;5303;53.266;10.410;2023-02-02T06:45:40;101279.28;;;7.33;100.00
10510;BME280;5303;53.266;10.410;2023-02-02T06:48:06;101276.00;;;7.20;100.00
10510;BME280;5303;53.266;10.410;2023-02-02T06:50:35;101274.72;;;7.34;100.00
10510;BME280;5303;53.266;10.410;2023-02-02T06:53:01;101296.28;;;7.35;100.00
10510;BME280;5303;53.266;10.410;2023-02-02T06:55:26;101290.88;;;7.35;100.00
10510;BME280;5303;53.266;10.410;2023-02-02T06:57:58;101295.09;;;7.18;100.00
10510;BME280;5303;53.266;10.410;2023-02-02T07:00:25;101294.09;;;7.10;100.00
10510;BME280;5303;53.266;10.410;2023-02-02T07:02:50;101295.66;;;7.22;100.00
10510;BME280;5303;53.266;10.410;2023-02-02T07:05:16;101303.13;;;7.30;100.00
10510;BME280;5303;53.266;10.410;2023-02-02T07:07:44;101306.41;;;7.33;100.00
10510;BME280;5303;53.266;10.410;2023-02-02T07:10:10;101302.53;;;7.16;100.00
10510;BME280;5303;53.266;10.410;2023-02-02T07:12:35;101299.66;;;7.18;100.00
10510;BME280;5303;53.266;10.410;2023-02-02T07:15:01;101298.25;;;7.33;100.00
10510;BME280;5303;53.266;10.410;2023-02-02T07:17:26;101318.78;;;7.16;100.00
10510;BME280;5303;53.266;10.410;2023-02-02T07:19:51;101313.94;;;7.30;100.00
10510;BME280;5303;53.266;10.410;2023-02-02T07:22:17;101325.63;;;7.20;100.00
10510;BME280;5303;53.266;10.410;2023-02-02T07:24:42;101323.53;;;7.53;100.00
10510;BME280;5303;53.266;10.410;2023-02-02T07:27:07;101332.44;;;7.15;100.00
10510;BME280;5303;53.266;10.410;2023-02-02T07:29:32;101336.47;;;7.30;100.00
10510;BME280;5303;53.266;10.410;2023-02-02T07:31:58;101343.31;;;7.24;100.00
10510;BME280;5303;53.266;10.410;2023-02-02T07:34:23;101342.44;;;7.14;100.00
10510;BME280;5303;53.266;10.410;2023-02-02T07:36:48;101355.63;;;7.38;100.00
10510;BME280;5303;53.266;10.410;2023-02-02T07:39:14;101350.47;;;7.35;100.00
10510;BME280;5303;53.266;10.410;2023-02-02T07:41:39;101354.13;;;7.15;100.00
10510;BME280;5303;53.266;10.410;2023-02-02T07:44:05;101353.69;;;7.10;100.00
10510;BME280;5303;53.266;10.410;2023-02-02T07:46:31;101364.34;;;7.42;100.00
10510;BME280;5303;53.266;10.410;2023-02-02T07:48:56;101370.31;;;7.45;100.00
10510;BME280;5303;53.266;10.410;2023-02-02T07:51:23;101365.50;;;7.09;100.00
10510;BME280;5303;53.266;10.410;2023-02-02T07:53:50;101380.38;;;7.24;100.00
10510;BME280;5303;53.266;10.410;2023-02-02T07:56:21;101375.53;;;7.28;100.00
10510;BME280;5303;53.266;10.410;2023-02-02T07:58:47;101376.94;;;7.22;100.00
10510;BME280;5303;53.266;10.410;2023-02-02T08:01:14;101379.88;;;7.40;100.00
10510;BME280;5303;53.266;10.410;2023-02-02T08:03:40;101387.56;;;7.44;100.00
10510;BME280;5303;53.266;10.410;2023-02-02T08:06:28;101395.03;;;7.12;100.00
10510;BME280;5303;53.266;10.410;2023-02-02T08:08:55;101390.94;;;7.27;100.00
10510;BME280;5303;53.266;10.410;2023-02-02T08:11:22;101402.91;;;7.24;100.00
10510;BME280;5303;53.266;10.410;2023-02-02T08:13:50;101404.88;;;7.13;100.00
10510;BME280;5303;53.266;10.410;2023-02-02T08:16:16;101416.72;;;7.21;100.00
10510;BME280;5303;53.266;10.410;2023-02-02T08:18:41;101415.47;;;7.16;100.00
10510;BME280;5303;53.266;10.410;2023-02-02T08:21:08;101417.69;;;7.11;100.00
10510;BME280;5303;53.266;10.410;2023-02-02T08:23:37;101422.63;;;7.27;100.00
10510;BME280;5303;53.266;10.410;2023-02-02T08:26:07;101424.34;;;7.37;100.00
10510;BME280;5303;53.266;10.410;2023-02-02T08:28:32;101431.38;;;7.50;100.00
10510;BME280;5303;53.266;10.410;2023-02-02T08:31:04;101433.94;;;7.51;100.00
10510;BME280;5303;53.266;10.410;2023-02-02T08:33:29;101439.34;;;7.41;100.00
10510;BME280;5303;53.266;10.410;2023-02-02T08:35:54;101452.50;;;7.46;100.00
10510;BME280;5303;53.266;10.410;2023-02-02T08:38:20;101446.09;;;7.57;100.00
10510;BME280;5303;53.266;10.410;2023-02-02T08:40:47;101443.88;;;7.72;100.00
10510;BME280;5303;53.266;10.410;2023-02-02T08:43:12;101458.81;;;7.56;100.00
10510;BME280;5303;53.266;10.410;2023-02-02T08:45:41;101453.25;;;7.58;100.00
10510;BME280;5303;53.266;10.410;2023-02-02T08:48:08;101460.97;;;7.72;100.00
10510;BME280;5303;53.266;10.410;2023-02-02T08:50:33;101464.16;;;7.87;100.00
10510;BME280;5303;53.266;10.410;2023-02-02T08:52:58;101474.88;;;7.88;100.00
10510;BME280;5303;53.266;10.410;2023-02-02T08:55:24;101469.72;;;7.95;100.00
10510;BME280;5303;53.266;10.410;2023-02-02T08:57:49;101473.72;;;7.91;100.00
10510;BME280;5303;53.266;10.410;2023-02-02T09:00:14;101475.84;;;7.78;100.00
10510;BME280;5303;53.266;10.410;2023-02-02T09:02:40;101478.16;;;7.92;100.00
10510;BME280;5303;53.266;10.410;2023-02-02T09:05:06;101483.44;;;7.93;100.00
10510;BME280;5303;53.266;10.410;2023-02-02T09:07:31;101481.31;;;7.97;100.00
10510;BME280;5303;53.266;10.410;2023-02-02T09:09:57;101492.19;;;8.07;100.00
10510;BME280;5303;53.266;10.410;2023-02-02T09:12:23;101487.31;;;8.01;100.00
10510;BME280;5303;53.266;10.410;2023-02-02T09:14:48;101496.78;;;8.16;100.00
10510;BME280;5303;53.266;10.410;2023-02-02T09:17:14;101498.91;;;8.12;100.00
10510;BME280;5303;53.266;10.410;2023-02-02T09:19:39;101506.63;;;8.17;100.00
10510;BME280;5303;53.266;10.410;2023-02-02T09:22:04;101499.19;;;8.09;100.00
10510;BME280;5303;53.266;10.410;2023-02-02T09:24:29;101513.47;;;8.21;100.00
10510;BME280;5303;53.266;10.410;2023-02-02T09:26:55;101503.22;;;8.44;100.00
10510;BME280;5303;53.266;10.410;2023-02-02T09:29:20;101506.53;;;8.77;100.00
10510;BME280;5303;53.266;10.410;2023-02-02T09:31:45;101510.34;;;8.94;100.00
10510;BME280;5303;53.266;10.410;2023-02-02T09:34:13;101510.34;;;8.94;100.00
10510;BME280;5303;53.266;10.410;2023-02-02T09:36:39;101517.66;;;8.93;100.00
10510;BME280;5303;53.266;10.410;2023-02-02T09:39:05;101522.47;;;9.09;100.00
10510;BME280;5303;53.266;10.410;2023-02-02T09:47:16;101537.75;;;9.20;100.00
10510;BME280;5303;53.266;10.410;2023-02-02T09:50:15;101539.88;;;9.26;100.00
10510;BME280;5303;53.266;10.410;2023-02-02T09:52:45;101540.53;;;8.81;100.00
10510;BME280;5303;53.266;10.410;2023-02-02T09:58:20;101543.50;;;9.07;100.00
10510;BME280;5303;53.266;10.410;2023-02-02T10:00:54;101542.72;;;9.44;100.00
10510;BME280;5303;53.266;10.410;2023-02-02T10:03:26;101546.75;;;9.20;100.00
10510;BME280;5303;53.266;10.410;2023-02-02T10:06:00;101553.06;;;9.21;100.00
10510;BME280;5303;53.266;10.410;2023-02-02T10:08:35;101551.69;;;8.97;100.00
10510;BME280;5303;53.266;10.410;2023-02-02T10:11:29;101557.19;;;9.35;100.00
10510;BME280;5303;53.266;10.410;2023-02-02T10:14:02;101556.22;;;9.16;100.00
10510;BME280;5303;53.266;10.410;2023-02-02T10:16:31;101562.06;;;9.68;100.00
10510;BME280;5303;53.266;10.410;2023-02-02T10:19:01;101564.41;;;9.63;100.00
10510;BME280;5303;53.266;10.410;2023-02-02T10:21:47;101574.88;;;9.48;100.00
10510;BME280;5303;53.266;10.410;2023-02-02T10:24:24;101574.22;;;9.27;100.00
10510;BME280;5303;53.266;10.410;2023-02-02T10:26:55;101571.69;;;9.06;100.00
10510;BME280;5303;53.266;10.410;2023-02-02T10:32:12;101579.88;;;8.67;100.00
10510;BME280;5303;53.266;10.410;2023-02-02T10:34:50;101585.41;;;8.66;100.00
10510;BME280;5303;53.266;10.410;2023-02-02T10:40:24;101593.16;;;8.99;100.00
10510;BME280;5303;53.266;10.410;2023-02-02T10:45:51;101609.19;;;9.02;100.00
10510;BME280;5303;53.266;10.410;2023-02-02T10:48:22;101613.88;;;8.91;100.00
10510;BME280;5303;53.266;10.410;2023-02-02T10:50:57;101619.59;;;9.17;100.00
10510;BME280;5303;53.266;10.410;2023-02-02T10:53:27;101629.91;;;8.94;100.00
10510;BME280;5303;53.266;10.410;2023-02-02T10:55:57;101636.47;;;9.20;100.00
10510;BME280;5303;53.266;10.410;2023-02-02T10:58:29;101643.91;;;9.28;100.00
10510;BME280;5303;53.266;10.410;2023-02-02T11:00:58;101640.03;;;9.21;100.00
10510;BME280;5303;53.266;10.410;2023-02-02T11:03:31;101634.00;;;9.46;100.00
10510;BME280;5303;53.266;10.410;2023-02-02T11:06:01;101641.28;;;9.55;100.00
10510;BME280;5303;53.266;10.410;2023-02-02T11:08:52;101640.13;;;9.68;100.00
10510;BME280;5303;53.266;10.410;2023-02-02T11:11:23;101651.16;;;9.56;100.00
10510;BME280;5303;53.266;10.410;2023-02-02T11:16:37;101644.13;;;9.64;100.00
10510;BME280;5303;53.266;10.410;2023-02-02T11:21:51;101641.44;;;9.54;100.00
10510;BME280;5303;53.266;10.410;2023-02-02T11:24:25;101643.94;;;9.75;100.00
10510;BME280;5303;53.266;10.410;2023-02-02T11:27:00;101651.09;;;9.86;100.00
10510;BME280;5303;53.266;10.410;2023-02-02T11:29:41;101650.09;;;9.87;100.00
10510;BME280;5303;53.266;10.410;2023-02-02T11:35:19;101651.72;;;9.70;100.00
10510;BME280;5303;53.266;10.410;2023-02-02T11:37:55;101648.78;;;9.91;100.00
10510;BME280;5303;53.266;10.410;2023-02-02T11:42:49;101628.41;;;9.95;100.00
10510;BME280;5303;53.266;10.410;2023-02-02T11:45:17;101646.47;;;9.96;100.00
10510;BME280;5303;53.266;10.410;2023-02-02T11:47:43;101639.22;;;9.77;100.00
10510;BME280;5303;53.266;10.410;2023-02-02T11:50:16;101643.59;;;9.97;100.00
10510;BME280;5303;53.266;10.410;2023-02-02T11:52:45;101641.13;;;9.67;100.00
10510;BME280;5303;53.266;10.410;2023-02-02T11:55:16;101644.13;;;9.73;100.00
10510;BME280;5303;53.266;10.410;2023-02-02T11:58:39;101646.47;;;9.29;100.00
10510;BME280;5303;53.266;10.410;2023-02-02T12:01:02;101654.63;;;9.39;100.00
10510;BME280;5303;53.266;10.410;2023-02-02T12:03:36;101652.16;;;9.55;100.00
10510;BME280;5303;53.266;10.410;2023-02-02T12:06:17;101656.03;;;9.43;100.00
10510;BME280;5303;53.266;10.410;2023-02-02T12:08:43;101656.59;;;9.47;100.00
10510;BME280;5303;53.266;10.410;2023-02-02T12:17:24;101650.81;;;9.69;100.00
10510;BME280;5303;53.266;10.410;2023-02-02T12:23:10;101654.59;;;9.59;100.00
10510;BME280;5303;53.266;10.410;2023-02-02T12:32:18;101673.66;;;9.39;100.00
10510;BME280;5303;53.266;10.410;2023-02-02T12:43:06;101681.97;;;9.38;100.00
10510;BME280;5303;53.266;10.410;2023-02-02T12:45:46;101668.06;;;9.60;100.00
10510;BME280;5303;53.266;10.410;2023-02-02T12:48:34;101675.78;;;9.65;100.00
10510;BME280;5303;53.266;10.410;2023-02-02T12:56:23;101671.38;;;9.54;100.00
10510;BME280;5303;53.266;10.410;2023-02-02T12:58:58;101672.19;;;9.64;100.00
10510;BME280;5303;53.266;10.410;2023-02-02T13:04:22;101674.28;;;9.90;100.00
10510;BME280;5303;53.266;10.410;2023-02-02T13:09:46;101675.94;;;9.63;100.00
10510;BME280;5303;53.266;10.410;2023-02-02T13:12:16;101677.66;;;9.54;100.00
10510;BME280;5303;53.266;10.410;2023-02-02T13:14:45;101677.50;;;9.37;100.00
10510;BME280;5303;53.266;10.410;2023-02-02T13:19:40;101675.47;;;9.68;100.00
10510;BME280;5303;53.266;10.410;2023-02-02T13:22:14;101686.50;;;9.56;100.00
10510;BME280;5303;53.266;10.410;2023-02-02T13:24:43;101686.50;;;9.76;100.00
10510;BME280;5303;53.266;10.410;2023-02-02T13:27:14;101687.66;;;9.73;100.00
10510;BME280;5303;53.266;10.410;2023-02-02T13:29:46;101699.41;;;9.54;100.00
10510;BME280;5303;53.266;10.410;2023-02-02T13:32:17;101687.66;;;9.64;100.00
10510;BME280;5303;53.266;10.410;2023-02-02T13:34:59;101695.81;;;9.73;100.00
10510;BME280;5303;53.266;10.410;2023-02-02T13:42:48;101704.38;;;9.69;100.00
10510;BME280;5303;53.266;10.410;2023-02-02T13:54:05;101711.28;;;9.63;100.00
10510;BME280;5303;53.266;10.410;2023-02-02T14:01:57;101711.84;;;9.67;100.00
10510;BME280;5303;53.266;10.410;2023-02-02T14:04:28;101724.16;;;9.71;100.00
10510;BME280;5303;53.266;10.410;2023-02-02T14:09:27;101727.88;;;9.70;100.00
10510;BME280;5303;53.266;10.410;2023-02-02T14:12:26;101729.31;;;9.74;100.00
10510;BME280;5303;53.266;10.410;2023-02-02T14:14:52;101729.44;;;9.63;100.00
10510;BME280;5303;53.266;10.410;2023-02-02T14:19:49;101725.44;;;9.76;100.00
10510;BME280;5303;53.266;10.410;2023-02-02T14:22:17;101727.00;;;9.69;100.00
10510;BME280;5303;53.266;10.410;2023-02-02T14:24:46;101727.59;;;9.83;100.00
10510;BME280;5303;53.266;10.410;2023-02-02T14:34:50;101739.13;;;9.94;100.00
10510;BME280;5303;53.266;10.410;2023-02-02T14:43:04;101746.63;;;9.83;100.00
10510;BME280;5303;53.266;10.410;2023-02-02T14:48:32;101746.63;;;9.83;100.00
10510;BME280;5303;53.266;10.410;2023-02-02T14:51:00;101752.22;;;9.71;100.00
10510;BME280;5303;53.266;10.410;2023-02-02T14:58:28;101772.56;;;9.48;100.00
10510;BME280;5303;53.266;10.410;2023-02-02T15:01:03;101779.84;;;9.38;100.00
10510;BME280;5303;53.266;10.410;2023-02-02T15:20:32;101805.75;;;9.42;100.00
10510;BME280;5303;53.266;10.410;2023-02-02T15:23:14;101813.34;;;9.38;100.00
10510;BME280;5303;53.266;10.410;2023-02-02T15:25:44;101816.66;;;9.51;100.00
10510;BME280;5303;53.266;10.410;2023-02-02T15:28:36;101822.66;;;9.45;100.00
10510;BME280;5303;53.266;10.410;2023-02-02T15:33:51;101822.91;;;9.32;100.00